Anastasia Island, Florida
Current Conditions -  °F | °C
As of 5:58 PM on Friday 19 Dec 2014 (Local Time) from KSGJ Reporting Station
Clear Clear  
Wind Chill: 59°   Ceiling: Unl
Heat Index: 59°   Visibility: 10mi
Dew Point: 53°   Wind: 3mph
Humidity: 81%   Direction: 100°E
Pressure: 30.1"   Gusts: NA
Location:  29.8475°N, 81.2787°W
Report Text: KSGJ 192258Z 10003KT 10SM CLR 15/12 A3010 RMK AO2 SLP191 T01500117
Loading
Personal Weather Stations






























Interactive Weather Map New forecast layout! Learn more

10-Day Weather Forecast

Advertisements
Track Severe Weather on mobile